sensor_id;sensor_type;location;lat;lon;timestamp;temperature;humidity
14142;DHT22;7151;52.246;4.820;2023-07-31T00:00:05;21.90;85.20
14142;DHT22;7151;52.246;4.820;2023-07-31T00:02:31;21.90;85.30
14142;DHT22;7151;52.246;4.820;2023-07-31T00:04:57;21.90;85.30
14142;DHT22;7151;52.246;4.820;2023-07-31T00:07:22;22.00;85.30
14142;DHT22;7151;52.246;4.820;2023-07-31T00:09:48;22.00;85.30
14142;DHT22;7151;52.246;4.820;2023-07-31T00:12:13;22.00;85.40
14142;DHT22;7151;52.246;4.820;2023-07-31T00:14:39;22.00;85.40
14142;DHT22;7151;52.246;4.820;2023-07-31T00:17:05;22.00;85.60
14142;DHT22;7151;52.246;4.820;2023-07-31T00:19:30;22.00;85.70
14142;DHT22;7151;52.246;4.820;2023-07-31T00:21:56;22.00;85.90
14142;DHT22;7151;52.246;4.820;2023-07-31T00:24:21;22.00;86.00
14142;DHT22;7151;52.246;4.820;2023-07-31T00:26:47;22.00;86.10
14142;DHT22;7151;52.246;4.820;2023-07-31T00:29:12;22.00;86.10
14142;DHT22;7151;52.246;4.820;2023-07-31T00:31:38;22.00;86.90
14142;DHT22;7151;52.246;4.820;2023-07-31T00:34:04;22.00;86.20
14142;DHT22;7151;52.246;4.820;2023-07-31T00:36:29;22.00;86.10
14142;DHT22;7151;52.246;4.820;2023-07-31T00:38:55;22.00;86.10
14142;DHT22;7151;52.246;4.820;2023-07-31T00:41:21;21.90;86.00
14142;DHT22;7151;52.246;4.820;2023-07-31T00:43:46;21.90;85.90
14142;DHT22;7151;52.246;4.820;2023-07-31T00:46:12;21.90;86.00
14142;DHT22;7151;52.246;4.820;2023-07-31T00:48:38;21.90;86.00
14142;DHT22;7151;52.246;4.820;2023-07-31T00:51:04;21.90;86.00
14142;DHT22;7151;52.246;4.820;2023-07-31T00:53:30;21.80;86.00
14142;DHT22;7151;52.246;4.820;2023-07-31T00:55:56;21.80;85.90
14142;DHT22;7151;52.246;4.820;2023-07-31T00:58:21;21.80;85.90
14142;DHT22;7151;52.246;4.820;2023-07-31T01:00:47;21.80;85.90
14142;DHT22;7151;52.246;4.820;2023-07-31T01:03:12;21.80;86.00
14142;DHT22;7151;52.246;4.820;2023-07-31T01:08:29;21.70;86.00
14142;DHT22;7151;52.246;4.820;2023-07-31T01:11:02;21.70;86.10
14142;DHT22;7151;52.246;4.820;2023-07-31T01:13:32;21.70;86.10
14142;DHT22;7151;52.246;4.820;2023-07-31T01:15:58;21.70;86.10
14142;DHT22;7151;52.246;4.820;2023-07-31T01:18:23;21.70;86.10
14142;DHT22;7151;52.246;4.820;2023-07-31T01:21:06;21.70;86.20
14142;DHT22;7151;52.246;4.820;2023-07-31T01:31:31;21.70;87.00
14142;DHT22;7151;52.246;4.820;2023-07-31T01:34:02;21.70;86.90
14142;DHT22;7151;52.246;4.820;2023-07-31T01:36:30;21.70;86.90
14142;DHT22;7151;52.246;4.820;2023-07-31T01:38:59;21.70;87.00
14142;DHT22;7151;52.246;4.820;2023-07-31T01:41:25;21.60;87.10
14142;DHT22;7151;52.246;4.820;2023-07-31T01:43:51;21.70;87.20
14142;DHT22;7151;52.246;4.820;2023-07-31T01:46:16;21.70;87.30
14142;DHT22;7151;52.246;4.820;2023-07-31T01:48:42;21.70;87.40
14142;DHT22;7151;52.246;4.820;2023-07-31T01:51:08;21.70;87.40
14142;DHT22;7151;52.246;4.820;2023-07-31T01:53:33;21.70;87.40
14142;DHT22;7151;52.246;4.820;2023-07-31T01:55:59;21.60;87.40
14142;DHT22;7151;52.246;4.820;2023-07-31T01:58:24;21.60;87.40
14142;DHT22;7151;52.246;4.820;2023-07-31T02:00:50;21.60;87.50
14142;DHT22;7151;52.246;4.820;2023-07-31T02:03:15;21.60;87.60
14142;DHT22;7151;52.246;4.820;2023-07-31T02:05:48;21.70;87.70
14142;DHT22;7151;52.246;4.820;2023-07-31T02:08:14;21.60;87.70
14142;DHT22;7151;52.246;4.820;2023-07-31T02:10:40;21.70;87.70
14142;DHT22;7151;52.246;4.820;2023-07-31T02:13:06;21.60;87.60
14142;DHT22;7151;52.246;4.820;2023-07-31T02:15:32;21.60;87.70
14142;DHT22;7151;52.246;4.820;2023-07-31T02:17:58;21.60;87.80
14142;DHT22;7151;52.246;4.820;2023-07-31T02:20:23;21.60;87.80
14142;DHT22;7151;52.246;4.820;2023-07-31T02:22:49;21.60;87.90
14142;DHT22;7151;52.246;4.820;2023-07-31T02:25:14;21.60;87.90
14142;DHT22;7151;52.246;4.820;2023-07-31T02:27:40;21.60;87.90
14142;DHT22;7151;52.246;4.820;2023-07-31T02:30:06;21.60;87.80
14142;DHT22;7151;52.246;4.820;2023-07-31T02:32:32;21.60;87.80
14142;DHT22;7151;52.246;4.820;2023-07-31T02:34:57;21.60;87.90
14142;DHT22;7151;52.246;4.820;2023-07-31T02:37:23;21.60;87.90
14142;DHT22;7151;52.246;4.820;2023-07-31T02:39:49;21.60;88.60
14142;DHT22;7151;52.246;4.820;2023-07-31T02:42:14;21.60;88.00
14142;DHT22;7151;52.246;4.820;2023-07-31T02:44:40;21.60;88.00
14142;DHT22;7151;52.246;4.820;2023-07-31T02:47:06;21.60;88.00
14142;DHT22;7151;52.246;4.820;2023-07-31T02:49:31;21.60;88.00
14142;DHT22;7151;52.246;4.820;2023-07-31T02:51:57;21.60;88.10
14142;DHT22;7151;52.246;4.820;2023-07-31T02:54:23;21.50;87.90
14142;DHT22;7151;52.246;4.820;2023-07-31T02:56:48;21.60;88.00
14142;DHT22;7151;52.246;4.820;2023-07-31T02:59:14;21.60;88.10
14142;DHT22;7151;52.246;4.820;2023-07-31T03:01:40;21.50;88.00
14142;DHT22;7151;52.246;4.820;2023-07-31T03:04:05;21.60;88.00
14142;DHT22;7151;52.246;4.820;2023-07-31T03:06:31;21.50;88.00
14142;DHT22;7151;52.246;4.820;2023-07-31T03:08:56;21.60;88.10
14142;DHT22;7151;52.246;4.820;2023-07-31T03:11:22;21.60;88.10
14142;DHT22;7151;52.246;4.820;2023-07-31T03:13:47;21.50;88.00
14142;DHT22;7151;52.246;4.820;2023-07-31T03:16:13;21.50;88.10
14142;DHT22;7151;52.246;4.820;2023-07-31T03:18:39;21.60;88.10
14142;DHT22;7151;52.246;4.820;2023-07-31T03:21:05;21.50;87.90
14142;DHT22;7151;52.246;4.820;2023-07-31T03:23:30;21.50;87.90
14142;DHT22;7151;52.246;4.820;2023-07-31T03:26:01;21.50;87.90
14142;DHT22;7151;52.246;4.820;2023-07-31T03:28:26;21.50;88.70
14142;DHT22;7151;52.246;4.820;2023-07-31T03:30:52;21.50;87.90
14142;DHT22;7151;52.246;4.820;2023-07-31T03:33:18;21.50;87.90
14142;DHT22;7151;52.246;4.820;2023-07-31T03:35:45;21.50;87.90
14142;DHT22;7151;52.246;4.820;2023-07-31T03:38:10;21.50;87.90
14142;DHT22;7151;52.246;4.820;2023-07-31T03:40:36;21.50;88.50
14142;DHT22;7151;52.246;4.820;2023-07-31T03:43:01;21.50;87.80
14142;DHT22;7151;52.246;4.820;2023-07-31T03:45:27;21.50;87.90
14142;DHT22;7151;52.246;4.820;2023-07-31T03:47:53;21.50;87.90
14142;DHT22;7151;52.246;4.820;2023-07-31T03:50:20;21.50;88.10
14142;DHT22;7151;52.246;4.820;2023-07-31T03:52:45;21.40;88.00
14142;DHT22;7151;52.246;4.820;2023-07-31T03:55:11;21.50;88.20
14142;DHT22;7151;52.246;4.820;2023-07-31T03:57:37;21.40;88.10
14142;DHT22;7151;52.246;4.820;2023-07-31T04:00:03;21.50;88.30
14142;DHT22;7151;52.246;4.820;2023-07-31T04:02:29;21.50;88.30
14142;DHT22;7151;52.246;4.820;2023-07-31T04:04:54;21.40;88.30
14142;DHT22;7151;52.246;4.820;2023-07-31T04:07:20;21.50;88.40
14142;DHT22;7151;52.246;4.820;2023-07-31T04:09:45;21.40;88.50
14142;DHT22;7151;52.246;4.820;2023-07-31T04:12:11;21.50;88.60
14142;DHT22;7151;52.246;4.820;2023-07-31T04:14:36;21.40;88.50
14142;DHT22;7151;52.246;4.820;2023-07-31T04:17:02;21.40;88.60
14142;DHT22;7151;52.246;4.820;2023-07-31T04:19:28;21.40;88.50
14142;DHT22;7151;52.246;4.820;2023-07-31T04:21:53;21.40;88.60
14142;DHT22;7151;52.246;4.820;2023-07-31T04:24:19;21.40;88.70
14142;DHT22;7151;52.246;4.820;2023-07-31T04:26:50;21.40;88.70
14142;DHT22;7151;52.246;4.820;2023-07-31T04:29:15;21.40;88.60
14142;DHT22;7151;52.246;4.820;2023-07-31T04:31:41;21.40;88.70
14142;DHT22;7151;52.246;4.820;2023-07-31T04:34:07;21.40;88.80
14142;DHT22;7151;52.246;4.820;2023-07-31T04:36:33;21.40;88.80
14142;DHT22;7151;52.246;4.820;2023-07-31T04:38:59;21.30;89.00
14142;DHT22;7151;52.246;4.820;2023-07-31T04:41:25;21.40;89.10
14142;DHT22;7151;52.246;4.820;2023-07-31T04:43:50;21.40;89.10
14142;DHT22;7151;52.246;4.820;2023-07-31T04:46:16;21.40;89.20
14142;DHT22;7151;52.246;4.820;2023-07-31T04:48:42;21.40;89.30
14142;DHT22;7151;52.246;4.820;2023-07-31T04:51:08;21.30;89.30
14142;DHT22;7151;52.246;4.820;2023-07-31T04:53:35;21.40;89.40
14142;DHT22;7151;52.246;4.820;2023-07-31T04:56:00;21.30;89.30
14142;DHT22;7151;52.246;4.820;2023-07-31T04:58:26;21.30;89.40
14142;DHT22;7151;52.246;4.820;2023-07-31T05:00:52;21.30;89.40
14142;DHT22;7151;52.246;4.820;2023-07-31T05:03:17;21.30;89.60
14142;DHT22;7151;52.246;4.820;2023-07-31T05:05:43;21.30;89.60
14142;DHT22;7151;52.246;4.820;2023-07-31T05:08:08;21.30;89.70
14142;DHT22;7151;52.246;4.820;2023-07-31T05:10:34;21.30;89.80
14142;DHT22;7151;52.246;4.820;2023-07-31T05:13:00;21.30;89.90
14142;DHT22;7151;52.246;4.820;2023-07-31T05:15:26;21.20;89.90
14142;DHT22;7151;52.246;4.820;2023-07-31T05:17:51;21.30;90.00
14142;DHT22;7151;52.246;4.820;2023-07-31T05:20:17;21.20;89.90
14142;DHT22;7151;52.246;4.820;2023-07-31T05:22:43;21.20;90.00
14142;DHT22;7151;52.246;4.820;2023-07-31T05:25:08;21.20;90.00
14142;DHT22;7151;52.246;4.820;2023-07-31T05:27:34;21.20;90.00
14142;DHT22;7151;52.246;4.820;2023-07-31T05:29:59;21.20;90.00
14142;DHT22;7151;52.246;4.820;2023-07-31T05:32:25;21.10;89.80
14142;DHT22;7151;52.246;4.820;2023-07-31T05:34:51;21.10;89.80
14142;DHT22;7151;52.246;4.820;2023-07-31T05:37:18;21.10;89.90
14142;DHT22;7151;52.246;4.820;2023-07-31T05:39:43;21.00;89.90
14142;DHT22;7151;52.246;4.820;2023-07-31T05:42:09;21.00;90.00
14142;DHT22;7151;52.246;4.820;2023-07-31T05:44:34;21.00;90.00
14142;DHT22;7151;52.246;4.820;2023-07-31T05:47:00;21.00;90.00
14142;DHT22;7151;52.246;4.820;2023-07-31T05:49:26;21.00;90.00
14142;DHT22;7151;52.246;4.820;2023-07-31T05:51:51;20.90;90.00
14142;DHT22;7151;52.246;4.820;2023-07-31T05:54:17;20.90;90.00
14142;DHT22;7151;52.246;4.820;2023-07-31T05:56:43;20.90;90.10
14142;DHT22;7151;52.246;4.820;2023-07-31T05:59:10;20.90;90.10
14142;DHT22;7151;52.246;4.820;2023-07-31T06:01:35;20.90;90.10
14142;DHT22;7151;52.246;4.820;2023-07-31T06:04:01;20.90;90.20
14142;DHT22;7151;52.246;4.820;2023-07-31T06:06:28;20.80;90.20
14142;DHT22;7151;52.246;4.820;2023-07-31T06:08:54;20.80;90.30
14142;DHT22;7151;52.246;4.820;2023-07-31T06:11:20;20.80;90.30
14142;DHT22;7151;52.246;4.820;2023-07-31T06:13:46;20.80;90.30
14142;DHT22;7151;52.246;4.820;2023-07-31T06:16:13;20.80;90.30
14142;DHT22;7151;52.246;4.820;2023-07-31T06:18:39;20.80;90.40
14142;DHT22;7151;52.246;4.820;2023-07-31T06:21:05;20.80;90.50
14142;DHT22;7151;52.246;4.820;2023-07-31T06:23:30;20.80;90.50
14142;DHT22;7151;52.246;4.820;2023-07-31T06:25:56;20.80;90.60
14142;DHT22;7151;52.246;4.820;2023-07-31T06:28:30;20.80;90.60
14142;DHT22;7151;52.246;4.820;2023-07-31T06:30:59;20.90;90.70
14142;DHT22;7151;52.246;4.820;2023-07-31T06:33:26;20.80;90.60
14142;DHT22;7151;52.246;4.820;2023-07-31T06:35:51;20.90;90.70
14142;DHT22;7151;52.246;4.820;2023-07-31T06:38:23;20.90;90.70
14142;DHT22;7151;52.246;4.820;2023-07-31T06:40:49;20.90;90.80
14142;DHT22;7151;52.246;4.820;2023-07-31T06:43:15;20.90;90.80
14142;DHT22;7151;52.246;4.820;2023-07-31T06:45:40;20.90;90.80
14142;DHT22;7151;52.246;4.820;2023-07-31T06:48:06;20.90;90.80
14142;DHT22;7151;52.246;4.820;2023-07-31T06:50:32;20.90;90.90
14142;DHT22;7151;52.246;4.820;2023-07-31T06:52:57;20.90;90.90
14142;DHT22;7151;52.246;4.820;2023-07-31T06:55:24;20.90;90.90
14142;DHT22;7151;52.246;4.820;2023-07-31T06:57:51;20.90;90.90
14142;DHT22;7151;52.246;4.820;2023-07-31T07:00:18;21.00;91.10
14142;DHT22;7151;52.246;4.820;2023-07-31T07:02:45;21.00;91.10
14142;DHT22;7151;52.246;4.820;2023-07-31T07:05:12;21.00;91.20
14142;DHT22;7151;52.246;4.820;2023-07-31T07:07:38;21.00;91.20
14142;DHT22;7151;52.246;4.820;2023-07-31T07:10:04;21.00;91.20
14142;DHT22;7151;52.246;4.820;2023-07-31T07:12:31;21.00;91.20
14142;DHT22;7151;52.246;4.820;2023-07-31T07:14:57;21.00;91.30
14142;DHT22;7151;52.246;4.820;2023-07-31T07:17:24;21.10;91.30
14142;DHT22;7151;52.246;4.820;2023-07-31T07:19:50;21.00;91.30
14142;DHT22;7151;52.246;4.820;2023-07-31T07:22:16;21.00;91.40
14142;DHT22;7151;52.246;4.820;2023-07-31T07:24:41;21.10;91.40
14142;DHT22;7151;52.246;4.820;2023-07-31T07:27:07;21.10;91.40
14142;DHT22;7151;52.246;4.820;2023-07-31T07:29:34;21.10;91.50
14142;DHT22;7151;52.246;4.820;2023-07-31T07:32:00;21.10;91.50
14142;DHT22;7151;52.246;4.820;2023-07-31T07:34:26;21.10;91.60
14142;DHT22;7151;52.246;4.820;2023-07-31T07:36:52;21.10;91.60
14142;DHT22;7151;52.246;4.820;2023-07-31T07:39:18;21.10;91.60
14142;DHT22;7151;52.246;4.820;2023-07-31T07:41:43;21.20;91.70
14142;DHT22;7151;52.246;4.820;2023-07-31T07:44:09;21.20;91.70
14142;DHT22;7151;52.246;4.820;2023-07-31T07:46:35;21.20;91.70
14142;DHT22;7151;52.246;4.820;2023-07-31T07:49:00;21.20;91.70
14142;DHT22;7151;52.246;4.820;2023-07-31T07:51:26;21.20;91.70
14142;DHT22;7151;52.246;4.820;2023-07-31T07:53:51;21.30;91.80
14142;DHT22;7151;52.246;4.820;2023-07-31T07:56:17;21.30;91.80
14142;DHT22;7151;52.246;4.820;2023-07-31T07:58:43;21.30;91.80
14142;DHT22;7151;52.246;4.820;2023-07-31T08:01:08;21.30;91.80
14142;DHT22;7151;52.246;4.820;2023-07-31T08:03:34;21.30;91.80
14142;DHT22;7151;52.246;4.820;2023-07-31T08:06:00;21.30;91.90
14142;DHT22;7151;52.246;4.820;2023-07-31T08:08:27;21.30;91.90
14142;DHT22;7151;52.246;4.820;2023-07-31T08:10:53;21.30;91.90
14142;DHT22;7151;52.246;4.820;2023-07-31T08:13:19;21.30;92.00
14142;DHT22;7151;52.246;4.820;2023-07-31T08:15:44;21.30;92.00
14142;DHT22;7151;52.246;4.820;2023-07-31T08:18:10;21.30;92.10
14142;DHT22;7151;52.246;4.820;2023-07-31T08:20:39;21.30;92.20
14142;DHT22;7151;52.246;4.820;2023-07-31T08:23:04;21.30;92.20
14142;DHT22;7151;52.246;4.820;2023-07-31T08:25:30;21.40;92.30
14142;DHT22;7151;52.246;4.820;2023-07-31T08:27:56;21.40;92.30
14142;DHT22;7151;52.246;4.820;2023-07-31T08:30:22;21.40;92.30
14142;DHT22;7151;52.246;4.820;2023-07-31T08:32:49;21.40;92.30
14142;DHT22;7151;52.246;4.820;2023-07-31T08:35:15;21.40;92.40
14142;DHT22;7151;52.246;4.820;2023-07-31T08:37:40;21.40;92.40
14142;DHT22;7151;52.246;4.820;2023-07-31T08:40:06;21.50;92.50
14142;DHT22;7151;52.246;4.820;2023-07-31T08:42:32;21.50;92.50
14142;DHT22;7151;52.246;4.820;2023-07-31T08:44:59;21.50;92.50
14142;DHT22;7151;52.246;4.820;2023-07-31T08:47:27;21.50;92.60
14142;DHT22;7151;52.246;4.820;2023-07-31T08:49:54;21.50;92.60
14142;DHT22;7151;52.246;4.820;2023-07-31T08:52:21;21.50;92.60
14142;DHT22;7151;52.246;4.820;2023-07-31T08:54:46;21.50;92.70
14142;DHT22;7151;52.246;4.820;2023-07-31T08:57:12;21.60;92.70
14142;DHT22;7151;52.246;4.820;2023-07-31T08:59:39;21.60;92.70
14142;DHT22;7151;52.246;4.820;2023-07-31T09:02:08;21.60;92.70
14142;DHT22;7151;52.246;4.820;2023-07-31T09:04:34;21.60;92.80
14142;DHT22;7151;52.246;4.820;2023-07-31T09:07:03;21.60;92.80
14142;DHT22;7151;52.246;4.820;2023-07-31T09:09:32;21.60;92.90
14142;DHT22;7151;52.246;4.820;2023-07-31T09:11:59;21.60;92.90
14142;DHT22;7151;52.246;4.820;2023-07-31T09:14:25;21.70;92.90
14142;DHT22;7151;52.246;4.820;2023-07-31T09:16:55;21.70;92.90
14142;DHT22;7151;52.246;4.820;2023-07-31T09:19:34;21.70;92.90
14142;DHT22;7151;52.246;4.820;2023-07-31T09:22:03;21.70;93.00
14142;DHT22;7151;52.246;4.820;2023-07-31T09:24:31;21.70;93.30
14142;DHT22;7151;52.246;4.820;2023-07-31T09:26:58;21.70;93.00
14142;DHT22;7151;52.246;4.820;2023-07-31T09:29:25;21.70;93.00
14142;DHT22;7151;52.246;4.820;2023-07-31T09:31:52;21.70;93.00
14142;DHT22;7151;52.246;4.820;2023-07-31T09:34:18;21.70;93.00
14142;DHT22;7151;52.246;4.820;2023-07-31T09:36:46;21.70;93.00
14142;DHT22;7151;52.246;4.820;2023-07-31T09:39:12;21.70;93.00
14142;DHT22;7151;52.246;4.820;2023-07-31T09:41:40;21.80;93.10
14142;DHT22;7151;52.246;4.820;2023-07-31T09:44:06;21.80;93.10
14142;DHT22;7151;52.246;4.820;2023-07-31T09:46:35;21.80;93.10
14142;DHT22;7151;52.246;4.820;2023-07-31T09:49:12;21.80;93.10
14142;DHT22;7151;52.246;4.820;2023-07-31T09:51:39;21.80;93.10
14142;DHT22;7151;52.246;4.820;2023-07-31T09:54:15;21.80;93.10
14142;DHT22;7151;52.246;4.820;2023-07-31T09:56:46;21.80;93.10
14142;DHT22;7151;52.246;4.820;2023-07-31T09:59:17;21.80;93.00
14142;DHT22;7151;52.246;4.820;2023-07-31T10:01:45;21.80;93.00
14142;DHT22;7151;52.246;4.820;2023-07-31T10:04:12;21.80;93.00
14142;DHT22;7151;52.246;4.820;2023-07-31T10:06:38;21.80;93.00
14142;DHT22;7151;52.246;4.820;2023-07-31T10:09:06;21.80;93.00
14142;DHT22;7151;52.246;4.820;2023-07-31T10:11:45;21.90;93.10
14142;DHT22;7151;52.246;4.820;2023-07-31T10:14:18;21.90;93.10
14142;DHT22;7151;52.246;4.820;2023-07-31T10:16:45;21.90;93.20
14142;DHT22;7151;52.246;4.820;2023-07-31T10:19:10;21.90;93.20
14142;DHT22;7151;52.246;4.820;2023-07-31T10:21:37;21.90;93.20
14142;DHT22;7151;52.246;4.820;2023-07-31T10:24:04;21.90;93.20
14142;DHT22;7151;52.246;4.820;2023-07-31T10:26:31;21.90;93.20
14142;DHT22;7151;52.246;4.820;2023-07-31T10:28:58;22.00;93.20
14142;DHT22;7151;52.246;4.820;2023-07-31T10:31:24;22.00;93.20
14142;DHT22;7151;52.246;4.820;2023-07-31T10:33:51;22.00;93.20
14142;DHT22;7151;52.246;4.820;2023-07-31T10:36:19;22.00;93.20
14142;DHT22;7151;52.246;4.820;2023-07-31T10:38:45;22.00;93.20
14142;DHT22;7151;52.246;4.820;2023-07-31T10:41:11;22.00;93.30
14142;DHT22;7151;52.246;4.820;2023-07-31T10:43:37;22.00;93.30
14142;DHT22;7151;52.246;4.820;2023-07-31T10:46:22;22.00;93.30
14142;DHT22;7151;52.246;4.820;2023-07-31T10:48:58;22.00;93.70
14142;DHT22;7151;52.246;4.820;2023-07-31T10:51:32;22.10;93.40
14142;DHT22;7151;52.246;4.820;2023-07-31T10:54:19;22.10;93.40
14142;DHT22;7151;52.246;4.820;2023-07-31T10:56:46;22.10;93.40
14142;DHT22;7151;52.246;4.820;2023-07-31T10:59:12;22.10;93.40
14142;DHT22;7151;52.246;4.820;2023-07-31T11:01:54;22.10;93.40
14142;DHT22;7151;52.246;4.820;2023-07-31T11:04:27;22.10;93.40
14142;DHT22;7151;52.246;4.820;2023-07-31T11:07:00;22.10;93.40
14142;DHT22;7151;52.246;4.820;2023-07-31T11:09:29;22.20;93.40
14142;DHT22;7151;52.246;4.820;2023-07-31T11:11:56;22.20;93.40
14142;DHT22;7151;52.246;4.820;2023-07-31T11:14:21;22.20;93.30
14142;DHT22;7151;52.246;4.820;2023-07-31T11:16:50;22.20;93.30
14142;DHT22;7151;52.246;4.820;2023-07-31T11:19:21;22.20;93.30
14142;DHT22;7151;52.246;4.820;2023-07-31T11:21:48;22.20;93.30
14142;DHT22;7151;52.246;4.820;2023-07-31T11:24:13;22.20;93.20
14142;DHT22;7151;52.246;4.820;2023-07-31T11:26:47;22.30;93.20
14142;DHT22;7151;52.246;4.820;2023-07-31T11:29:13;22.30;93.20
14142;DHT22;7151;52.246;4.820;2023-07-31T11:31:47;22.30;93.20
14142;DHT22;7151;52.246;4.820;2023-07-31T11:34:13;22.30;93.10
14142;DHT22;7151;52.246;4.820;2023-07-31T11:36:39;22.30;93.10
14142;DHT22;7151;52.246;4.820;2023-07-31T11:39:05;22.30;93.00
14142;DHT22;7151;52.246;4.820;2023-07-31T11:41:32;22.30;93.00
14142;DHT22;7151;52.246;4.820;2023-07-31T11:44:01;22.30;93.00
14142;DHT22;7151;52.246;4.820;2023-07-31T11:46:30;22.30;93.00
14142;DHT22;7151;52.246;4.820;2023-07-31T11:48:59;22.40;93.10
14142;DHT22;7151;52.246;4.820;2023-07-31T11:51:26;22.40;93.10
14142;DHT22;7151;52.246;4.820;2023-07-31T11:53:58;22.40;93.00
14142;DHT22;7151;52.246;4.820;2023-07-31T11:56:26;22.40;93.10
14142;DHT22;7151;52.246;4.820;2023-07-31T11:58:58;22.40;93.10
14142;DHT22;7151;52.246;4.820;2023-07-31T12:01:24;22.50;93.40
14142;DHT22;7151;52.246;4.820;2023-07-31T12:03:50;22.50;93.00
14142;DHT22;7151;52.246;4.820;2023-07-31T12:06:17;22.50;92.90
14142;DHT22;7151;52.246;4.820;2023-07-31T12:08:42;22.50;92.90
14142;DHT22;7151;52.246;4.820;2023-07-31T12:11:09;22.50;92.80
14142;DHT22;7151;52.246;4.820;2023-07-31T12:13:35;22.50;92.80
14142;DHT22;7151;52.246;4.820;2023-07-31T12:16:02;22.50;92.70
14142;DHT22;7151;52.246;4.820;2023-07-31T12:18:33;22.50;92.70
14142;DHT22;7151;52.246;4.820;2023-07-31T12:21:00;22.50;92.80
14142;DHT22;7151;52.246;4.820;2023-07-31T12:23:28;22.50;92.80
14142;DHT22;7151;52.246;4.820;2023-07-31T12:26:09;22.60;92.80
14142;DHT22;7151;52.246;4.820;2023-07-31T12:28:41;22.60;92.80
14142;DHT22;7151;52.246;4.820;2023-07-31T12:31:09;22.60;92.80
14142;DHT22;7151;52.246;4.820;2023-07-31T12:33:37;22.60;92.80
14142;DHT22;7151;52.246;4.820;2023-07-31T12:36:07;22.60;92.70
14142;DHT22;7151;52.246;4.820;2023-07-31T12:38:33;22.60;92.70
14142;DHT22;7151;52.246;4.820;2023-07-31T12:40:58;22.60;92.60
14142;DHT22;7151;52.246;4.820;2023-07-31T12:43:24;22.60;92.60
14142;DHT22;7151;52.246;4.820;2023-07-31T12:45:50;22.70;92.60
14142;DHT22;7151;52.246;4.820;2023-07-31T12:48:15;22.70;92.50
14142;DHT22;7151;52.246;4.820;2023-07-31T12:50:41;22.50;92.50
14142;DHT22;7151;52.246;4.820;2023-07-31T12:53:07;22.60;92.60
14142;DHT22;7151;52.246;4.820;2023-07-31T12:55:33;22.70;92.70
14142;DHT22;7151;52.246;4.820;2023-07-31T12:58:00;22.70;92.70
14142;DHT22;7151;52.246;4.820;2023-07-31T13:00:26;22.70;92.80
14142;DHT22;7151;52.246;4.820;2023-07-31T13:02:52;22.70;92.80
14142;DHT22;7151;52.246;4.820;2023-07-31T13:05:18;22.80;92.80
14142;DHT22;7151;52.246;4.820;2023-07-31T13:07:46;22.80;92.90
14142;DHT22;7151;52.246;4.820;2023-07-31T13:10:12;22.80;92.90
14142;DHT22;7151;52.246;4.820;2023-07-31T13:12:37;22.80;92.90
14142;DHT22;7151;52.246;4.820;2023-07-31T13:15:05;22.90;92.90
14142;DHT22;7151;52.246;4.820;2023-07-31T13:17:30;22.90;92.80
14142;DHT22;7151;52.246;4.820;2023-07-31T13:19:56;22.90;92.70
14142;DHT22;7151;52.246;4.820;2023-07-31T13:22:22;22.90;92.70
14142;DHT22;7151;52.246;4.820;2023-07-31T13:24:47;23.00;92.70
14142;DHT22;7151;52.246;4.820;2023-07-31T13:27:13;23.00;92.70
14142;DHT22;7151;52.246;4.820;2023-07-31T13:29:43;23.00;92.50
14142;DHT22;7151;52.246;4.820;2023-07-31T13:32:09;23.10;92.50
14142;DHT22;7151;52.246;4.820;2023-07-31T13:34:34;23.00;92.40
14142;DHT22;7151;52.246;4.820;2023-07-31T13:37:00;23.10;92.40
14142;DHT22;7151;52.246;4.820;2023-07-31T13:39:25;23.10;92.40
14142;DHT22;7151;52.246;4.820;2023-07-31T13:41:51;23.10;92.40
14142;DHT22;7151;52.246;4.820;2023-07-31T13:44:16;23.00;92.40
14142;DHT22;7151;52.246;4.820;2023-07-31T13:46:42;23.00;92.40
14142;DHT22;7151;52.246;4.820;2023-07-31T13:49:07;23.00;92.40
14142;DHT22;7151;52.246;4.820;2023-07-31T13:51:33;23.00;92.40
14142;DHT22;7151;52.246;4.820;2023-07-31T13:53:59;22.90;92.40
14142;DHT22;7151;52.246;4.820;2023-07-31T13:56:24;22.90;92.50
14142;DHT22;7151;52.246;4.820;2023-07-31T13:58:50;22.90;92.60
14142;DHT22;7151;52.246;4.820;2023-07-31T14:01:15;22.80;92.70
14142;DHT22;7151;52.246;4.820;2023-07-31T14:03:41;22.80;92.80
14142;DHT22;7151;52.246;4.820;2023-07-31T14:06:07;22.80;92.90
14142;DHT22;7151;52.246;4.820;2023-07-31T14:08:32;22.80;92.90
14142;DHT22;7151;52.246;4.820;2023-07-31T14:10:58;22.80;92.90
14142;DHT22;7151;52.246;4.820;2023-07-31T14:13:24;22.80;92.90
14142;DHT22;7151;52.246;4.820;2023-07-31T14:15:49;22.80;92.80
14142;DHT22;7151;52.246;4.820;2023-07-31T14:18:15;22.80;92.90
14142;DHT22;7151;52.246;4.820;2023-07-31T14:20:40;22.80;92.90
14142;DHT22;7151;52.246;4.820;2023-07-31T14:23:06;22.80;92.80
14142;DHT22;7151;52.246;4.820;2023-07-31T14:25:32;22.80;92.70
14142;DHT22;7151;52.246;4.820;2023-07-31T14:27:57;22.80;92.60
14142;DHT22;7151;52.246;4.820;2023-07-31T14:30:23;22.80;92.60
14142;DHT22;7151;52.246;4.820;2023-07-31T14:32:48;22.80;92.60
14142;DHT22;7151;52.246;4.820;2023-07-31T14:35:14;22.80;93.00
14142;DHT22;7151;52.246;4.820;2023-07-31T14:37:41;22.80;92.70
14142;DHT22;7151;52.246;4.820;2023-07-31T14:40:08;22.70;92.70
14142;DHT22;7151;52.246;4.820;2023-07-31T14:42:35;22.70;92.70
14142;DHT22;7151;52.246;4.820;2023-07-31T14:45:01;22.70;92.70
14142;DHT22;7151;52.246;4.820;2023-07-31T14:47:26;22.80;92.70
14142;DHT22;7151;52.246;4.820;2023-07-31T14:49:52;22.80;92.70
14142;DHT22;7151;52.246;4.820;2023-07-31T14:52:18;22.80;92.70
14142;DHT22;7151;52.246;4.820;2023-07-31T14:54:45;22.80;92.60
14142;DHT22;7151;52.246;4.820;2023-07-31T14:57:11;22.70;92.60
14142;DHT22;7151;52.246;4.820;2023-07-31T14:59:36;22.80;92.70
14142;DHT22;7151;52.246;4.820;2023-07-31T15:02:02;22.80;92.80
14142;DHT22;7151;52.246;4.820;2023-07-31T15:04:29;22.80;92.80
14142;DHT22;7151;52.246;4.820;2023-07-31T15:06:54;22.80;92.90
14142;DHT22;7151;52.246;4.820;2023-07-31T15:09:20;22.80;92.90
14142;DHT22;7151;52.246;4.820;2023-07-31T15:11:46;22.80;92.80
14142;DHT22;7151;52.246;4.820;2023-07-31T15:14:12;22.80;92.80
14142;DHT22;7151;52.246;4.820;2023-07-31T15:16:38;22.90;92.80
14142;DHT22;7151;52.246;4.820;2023-07-31T15:19:03;22.90;92.80
14142;DHT22;7151;52.246;4.820;2023-07-31T15:21:29;22.80;92.70
14142;DHT22;7151;52.246;4.820;2023-07-31T15:23:55;22.80;92.70
14142;DHT22;7151;52.246;4.820;2023-07-31T15:26:20;22.80;92.70
14142;DHT22;7151;52.246;4.820;2023-07-31T15:28:49;22.80;92.70
14142;DHT22;7151;52.246;4.820;2023-07-31T15:31:15;22.80;92.80
14142;DHT22;7151;52.246;4.820;2023-07-31T15:33:41;22.80;92.80
14142;DHT22;7151;52.246;4.820;2023-07-31T15:36:07;22.80;92.80
14142;DHT22;7151;52.246;4.820;2023-07-31T15:38:32;22.80;92.80
14142;DHT22;7151;52.246;4.820;2023-07-31T15:40:58;22.80;92.80
14142;DHT22;7151;52.246;4.820;2023-07-31T15:43:24;22.80;92.80
14142;DHT22;7151;52.246;4.820;2023-07-31T15:45:50;22.80;92.80
14142;DHT22;7151;52.246;4.820;2023-07-31T15:48:15;22.80;92.80
14142;DHT22;7151;52.246;4.820;2023-07-31T15:50:41;22.80;92.80